SEAM/ATF METAR and TAF weather

Enter ICAO airport designator
Station Type Date Time Source
SEAM METAR 2019/10/18 21:00 UTC NOAA

SEAM 182100Z 15009KT 9999 SCT016 23/12 Q1023


Station Type Date Time Source
SEAM Decoded METAR 2019/10/18 21:00 UTC NOAA

Ambato / Chachoan, Ecuador (SEAM) 01-12S 078-34W
Oct 18, 2019 - 05:00 PM EDT / 2019.10.18 2100 UTC
Wind: from the SSE (150 degrees) at 10 MPH (9 KT):0
Visibility: greater than 7 mile(s):0
Sky conditions: partly cloudy
Temperature: 73 F (23 C)
Dew Point: 53 F (12 C)
Relative Humidity: 49%
Pressure (altimeter): 30.21 in. Hg (1023 hPa)
ob: SEAM 182100Z 15009KT 9999 SCT016 23/12 Q1023
cycle: 21

Station Type Date Time Source
SEAM TAF UTC NOAA

Error!

Example: see airport list